Time;durP1;ratioP1;P1;durP2;ratioP2;P2;SDS_P1;SDS_P2;PMS_P1;PMS_P2;Temp;Humidity;BMP_temperature;BMP_pressure;BME280_temperature;BME280_humidity;BME280_pressure;Samples;Min_cycle;Max_cycle;Signal;HPM_P1;HPM_P2
2021/10/13 00:00:08;;;;;;;1.05;1.05;;;;;;;;;;7328692;19;154210;-17
2021/10/13 00:02:38;;;;;;;;;;;;;;;;;;7332685;19;161833;-17
2021/10/13 00:05:07;;;;;;;0.80;0.80;;;;;;;;;;7331530;19;162590;-17
2021/10/13 00:07:35;;;;;;;0.80;0.80;;;;;;;;;;7331532;19;154086;-15
2021/10/13 00:10:04;;;;;;;0.98;0.98;;;;;;;;;;7331263;19;153558;-15
2021/10/13 09:38:22;;;;;;;0.90;0.90;;;;;;;;;;7370519;19;132541;-17
2021/10/13 09:41:00;;;;;;;1.65;0.80;;;;;;;;;;7364703;19;153724;-14
2021/10/13 09:43:36;;;;;;;0.80;0.80;;;;;;;;;;7367667;19;161879;-16
2021/10/13 09:46:10;;;;;;;1.08;0.77;;;;;;;;;;7366769;19;162383;-17
2021/10/13 09:48:43;;;;;;;0.95;0.85;;;;;;;;;;7368650;19;154016;-15
2021/10/13 09:51:18;;;;;;;1.10;1.00;;;;;;;;;;7366371;19;153556;-17
2021/10/13 09:53:49;;;;;;;2.70;1.02;;;;;;;;;;7368332;19;161889;-16
2021/10/13 09:56:30;;;;;;;0.98;0.90;;;;;;;;;;7363887;19;162679;-15
2021/10/13 09:59:14;;;;;;;2.20;0.90;;;;;;;;;;7364303;19;153979;-16
2021/10/13 10:01:53;;;;;;;1.05;1.00;;;;;;;;;;7363871;19;154387;-15
2021/10/13 10:04:24;;;;;;;0.73;0.73;;;;;;;;;;7367220;19;161896;-16
2021/10/13 10:06:56;;;;;;;1.20;1.10;;;;;;;;;;7362459;19;162448;-15
2021/10/13 10:09:26;;;;;;;1.30;0.90;;;;;;;;;;7363764;19;154228;-15
2021/10/13 10:12:08;;;;;;;1.42;1.00;;;;;;;;;;7362530;19;153635;-14
2021/10/13 10:14:43;;;;;;;0.80;0.80;;;;;;;;;;7362036;19;161936;-15
2021/10/13 10:17:12;;;;;;;0.80;0.80;;;;;;;;;;7363262;19;162445;-14
2021/10/13 10:19:41;;;;;;;1.15;0.90;;;;;;;;;;7362580;19;153937;-17
2021/10/13 10:22:18;;;;;;;0.95;0.80;;;;;;;;;;7365305;19;153654;-17
2021/10/13 10:24:46;;;;;;;1.23;0.88;;;;;;;;;;7362031;19;162017;-15
2021/10/13 10:27:23;;;;;;;1.10;0.80;;;;;;;;;;7361604;19;162393;-16
2021/10/13 10:30:09;;;;;;;0.90;0.90;;;;;;;;;;7361636;19;154278;-17
2021/10/13 10:32:43;;;;;;;0.98;0.90;;;;;;;;;;7363174;19;153774;-17
2021/10/13 10:35:15;;;;;;;1.45;0.82;;;;;;;;;;7362884;19;162098;-15
2021/10/13 10:37:49;;;;;;;1.08;0.90;;;;;;;;;;7349547;19;162320;-16
2021/10/13 10:40:32;;;;;;;0.95;0.90;;;;;;;;;;7332893;19;154363;-15
2021/10/13 10:43:06;;;;;;;0.70;0.70;;;;;;;;;;7334229;19;154004;-16
2021/10/13 10:45:40;;;;;;;1.27;0.85;;;;;;;;;;7333664;19;161849;-16
2021/10/13 10:48:11;;;;;;;0.70;0.70;;;;;;;;;;7331270;19;162724;-15
2021/10/13 10:50:55;;;;;;;0.82;0.82;;;;;;;;;;7334489;19;153685;-15
2021/10/13 10:53:38;;;;;;;0.73;0.70;;;;;;;;;;7333899;19;153523;-17
2021/10/13 10:56:15;;;;;;;1.02;0.70;;;;;;;;;;7333240;19;162118;-16
2021/10/13 10:59:07;;;;;;;0.77;0.77;;;;;;;;;;7333430;19;162388;-17
2021/10/13 11:01:36;;;;;;;1.10;0.88;;;;;;;;;;7333837;19;153782;-15
2021/10/13 11:04:08;;;;;;;1.42;0.70;;;;;;;;;;7333538;19;153746;-15
2021/10/13 11:06:38;;;;;;;0.68;0.68;;;;;;;;;;7332545;19;162484;-16
2021/10/13 11:09:12;;;;;;;0.73;0.60;;;;;;;;;;7333242;19;162407;-16
2021/10/13 11:11:43;;;;;;;1.10;0.50;;;;;;;;;;7333062;19;154119;-15
2021/10/13 11:14:24;;;;;;;0.95;0.60;;;;;;;;;;7333269;19;153530;-16
2021/10/13 11:16:55;;;;;;;0.57;0.50;;;;;;;;;;7333013;19;161835;-16
2021/10/13 11:19:34;;;;;;;0.60;0.60;;;;;;;;;;7333085;19;162377;-17
2021/10/13 11:22:08;;;;;;;0.50;0.50;;;;;;;;;;7333054;19;154002;-19
2021/10/13 11:24:39;;;;;;;0.60;0.50;;;;;;;;;;7333125;19;153545;-14
2021/10/13 11:27:07;;;;;;;0.50;0.50;;;;;;;;;;7331646;19;161818;-15
2021/10/13 11:29:37;;;;;;;0.60;0.60;;;;;;;;;;7332804;19;162387;-16
2021/10/13 11:32:15;;;;;;;0.47;0.45;;;;;;;;;;7333171;19;154233;-18
2021/10/13 11:34:57;;;;;;;0.60;0.60;;;;;;;;;;7331770;19;153679;-16
2021/10/13 11:37:26;;;;;;;0.60;0.60;;;;;;;;;;7316554;19;161944;-15
2021/10/13 11:39:57;;;;;;;0.50;0.50;;;;;;;;;;7333616;19;163081;-17
2021/10/13 11:42:26;;;;;;;0.52;0.52;;;;;;;;;;7335195;19;154190;-17
2021/10/13 11:44:56;;;;;;;0.50;0.50;;;;;;;;;;7335658;19;153860;-15
2021/10/13 11:47:30;;;;;;;1.95;0.60;;;;;;;;;;7333815;19;162560;-17
2021/10/13 11:50:07;;;;;;;0.60;0.60;;;;;;;;;;7333133;19;162332;-14
2021/10/13 11:52:37;;;;;;;0.50;0.50;;;;;;;;;;7334874;19;153950;-15
2021/10/13 11:55:13;;;;;;;0.50;0.50;;;;;;;;;;7332486;19;153800;-16
2021/10/13 11:57:53;;;;;;;1.05;0.70;;;;;;;;;;7331952;19;161780;-17
2021/10/13 12:00:25;;;;;;;0.85;0.50;;;;;;;;;;7333519;19;163020;-15
2021/10/13 12:03:00;;;;;;;0.43;0.43;;;;;;;;;;7335048;19;153932;-16
2021/10/13 12:05:32;;;;;;;0.30;0.30;;;;;;;;;;7334815;19;153826;-16
2021/10/13 12:08:07;;;;;;;2.50;0.77;;;;;;;;;;7329633;19;161896;-17
2021/10/13 12:10:47;;;;;;;1.10;1.10;;;;;;;;;;7331372;19;162693;-15
2021/10/13 12:13:26;;;;;;;2.47;0.60;;;;;;;;;;7333851;19;153942;-17
2021/10/13 12:15:59;;;;;;;7.97;7.28;;;;;;;;;;7335536;19;153560;-15
2021/10/13 12:18:32;;;;;;;4.53;4.13;;;;;;;;;;7331299;19;161971;-17
2021/10/13 12:21:03;;;;;;;7.47;6.90;;;;;;;;;;7330093;19;162491;-15
2021/10/13 12:23:37;;;;;;;8.40;7.75;;;;;;;;;;7331349;19;153691;-16
2021/10/13 12:26:39;;;;;;;9.40;8.68;;;;;;;;;;7333255;19;153803;-17
2021/10/13 12:29:12;;;;;;;9.75;8.95;;;;;;;;;;7330973;19;162071;-17
2021/10/13 12:31:42;;;;;;;10.70;9.80;;;;;;;;;;7330743;19;162541;-18
2021/10/13 12:34:20;;;;;;;10.85;9.95;;;;;;;;;;7330722;19;154166;-16
2021/10/13 12:36:58;;;;;;;10.93;10.02;;;;;;;;;;7329773;19;153571;-15
2021/10/13 12:39:29;;;;;;;11.73;10.73;;;;;;;;;;7333166;19;161793;-18
2021/10/13 12:42:03;;;;;;;11.10;10.18;;;;;;;;;;7329738;19;162434;-16
2021/10/13 12:44:31;;;;;;;10.63;9.73;;;;;;;;;;7330381;19;153925;-16
2021/10/13 12:47:04;;;;;;;11.40;10.45;;;;;;;;;;7329668;19;154204;-17
2021/10/13 12:49:37;;;;;;;10.77;9.87;;;;;;;;;;7330441;19;161842;-18
2021/10/13 12:52:07;;;;;;;;;;;;;;;;;;7330774;19;162312;-18
2021/10/13 12:54:34;;;;;;;10.65;9.85;;;;;;;;;;7329870;19;154166;-17
2021/10/13 12:57:04;;;;;;;9.85;9.02;;;;;;;;;;7330648;19;153706;-16
2021/10/13 12:59:32;;;;;;;10.00;9.20;;;;;;;;;;7329285;19;161950;-14
2021/10/13 13:02:00;;;;;;;10.43;9.63;;;;;;;;;;7328133;19;163021;-15
2021/10/13 13:04:27;;;;;;;12.52;11.43;;;;;;;;;;7330394;19;153931;-18
2021/10/13 13:06:55;;;;;;;10.30;9.50;;;;;;;;;;7329699;19;153600;-17
2021/10/13 13:09:23;;;;;;;11.20;10.30;;;;;;;;;;7329466;19;162042;-17
2021/10/13 13:11:52;;;;;;;10.52;9.70;;;;;;;;;;7328770;19;162636;-16
2021/10/13 13:14:20;;;;;;;10.18;9.38;;;;;;;;;;7330138;19;154004;-16
2021/10/13 13:16:48;;;;;;;11.70;10.70;;;;;;;;;;7334314;19;153589;-18
2021/10/13 13:19:17;;;;;;;13.43;12.32;;;;;;;;;;7328237;19;161952;-14
2021/10/13 13:21:46;;;;;;;10.55;9.73;;;;;;;;;;7329357;19;163803;-14
2021/10/13 13:24:15;;;;;;;10.32;9.43;;;;;;;;;;7329768;19;154169;-17
2021/10/13 13:26:42;;;;;;;12.85;11.75;;;;;;;;;;7323068;19;153536;-16
2021/10/13 13:29:12;;;;;;;11.75;10.85;;;;;;;;;;7327298;19;162105;-15
2021/10/13 13:31:40;;;;;;;11.95;10.95;;;;;;;;;;7330582;19;162371;-17
2021/10/13 13:34:08;;;;;;;11.07;10.18;;;;;;;;;;7332921;19;154067;-16
2021/10/13 13:36:36;;;;;;;16.55;14.85;;;;;;;;;;7327410;19;153546;-15
2021/10/13 13:39:18;;;;;;;4.40;4.00;;;;;;;;;;7329195;19;161969;-16
2021/10/13 13:41:46;;;;;;;5.55;3.30;;;;;;;;;;7329071;19;162345;-15
2021/10/13 13:44:14;;;;;;;4.20;2.67;;;;;;;;;;7329313;19;153910;-18
2021/10/13 13:46:42;;;;;;;2.33;1.75;;;;;;;;;;7329462;19;153558;-18
2021/10/13 13:49:10;;;;;;;1.95;1.85;;;;;;;;;;7326365;19;161877;-18
2021/10/13 13:51:38;;;;;;;1.92;1.83;;;;;;;;;;7328836;19;162443;-16
2021/10/13 13:54:06;;;;;;;1.35;1.25;;;;;;;;;;7326589;19;153987;-19
2021/10/13 13:56:34;;;;;;;1.27;1.20;;;;;;;;;;7327714;19;153514;-19
2021/10/13 13:59:02;;;;;;;1.40;1.30;;;;;;;;;;7327412;19;162740;-20
2021/10/13 14:01:30;;;;;;;1.20;1.10;;;;;;;;;;7326758;19;162370;-17
2021/10/13 14:03:58;;;;;;;1.38;1.27;;;;;;;;;;7327640;19;154116;-15
2021/10/13 14:06:25;;;;;;;0.80;0.80;;;;;;;;;;7327269;19;153560;-16
2021/10/13 14:08:53;;;;;;;1.15;0.90;;;;;;;;;;7325105;19;162314;-18
2021/10/13 14:11:21;;;;;;;0.63;0.63;;;;;;;;;;7328251;19;162366;-16
2021/10/13 14:13:49;;;;;;;0.70;0.70;;;;;;;;;;7332947;19;154242;-16
2021/10/13 14:16:17;;;;;;;0.80;0.80;;;;;;;;;;7335263;19;153616;-17
2021/10/13 14:18:45;;;;;;;0.60;0.60;;;;;;;;;;7334859;19;161898;-19
2021/10/13 14:21:13;;;;;;;0.50;0.50;;;;;;;;;;7333777;19;162727;-17
2021/10/13 14:23:41;;;;;;;0.60;0.60;;;;;;;;;;7335316;19;154061;-16
2021/10/13 14:26:09;;;;;;;0.50;0.50;;;;;;;;;;7335056;19;153639;-15
2021/10/13 14:28:37;;;;;;;0.65;0.60;;;;;;;;;;7333105;19;161805;-15
2021/10/13 14:31:05;;;;;;;0.55;0.55;;;;;;;;;;7334617;19;162188;-17
2021/10/13 14:33:43;;;;;;;0.50;0.50;;;;;;;;;;7335018;19;153948;-18
2021/10/13 14:36:12;;;;;;;0.60;0.60;;;;;;;;;;7334703;19;153597;-18
2021/10/13 14:38:39;;;;;;;0.50;0.50;;;;;;;;;;7331784;19;161760;-18
2021/10/13 14:41:07;;;;;;;0.35;0.35;;;;;;;;;;7334471;19;162621;-16
2021/10/13 14:43:36;;;;;;;0.50;0.50;;;;;;;;;;7334990;19;154431;-14
2021/10/13 14:46:03;;;;;;;0.43;0.43;;;;;;;;;;7334618;19;153792;-17
2021/10/13 14:48:31;;;;;;;0.50;0.50;;;;;;;;;;7331438;19;162040;-16
2021/10/13 14:51:03;;;;;;;0.30;0.30;;;;;;;;;;7332933;19;162395;-17
2021/10/13 14:53:31;;;;;;;0.40;0.40;;;;;;;;;;7334426;19;153955;-15
2021/10/13 14:55:59;;;;;;;0.40;0.40;;;;;;;;;;7334353;19;153566;-17
2021/10/13 14:58:27;;;;;;;0.50;0.50;;;;;;;;;;7333910;19;161814;-18
2021/10/13 15:00:55;;;;;;;0.50;0.50;;;;;;;;;;7333687;19;162621;-18
2021/10/13 15:03:23;;;;;;;0.45;0.45;;;;;;;;;;7333951;19;153982;-14
2021/10/13 15:05:51;;;;;;;0.47;0.47;;;;;;;;;;7332783;19;153553;-21
2021/10/13 15:08:19;;;;;;;0.50;0.50;;;;;;;;;;7331224;19;161878;-17
2021/10/13 15:10:48;;;;;;;0.52;0.52;;;;;;;;;;7333703;19;162739;-19
2021/10/13 15:13:16;;;;;;;0.50;0.50;;;;;;;;;;7333933;19;154130;-17
2021/10/13 15:15:44;;;;;;;0.77;0.70;;;;;;;;;;7333575;19;153503;-18
2021/10/13 15:18:12;;;;;;;0.50;0.50;;;;;;;;;;7333397;19;161856;-17
2021/10/13 15:20:43;;;;;;;0.65;0.65;;;;;;;;;;7333021;19;162395;-16
2021/10/13 15:23:12;;;;;;;0.57;0.57;;;;;;;;;;7332557;19;154032;-17
2021/10/13 15:25:43;;;;;;;0.50;0.50;;;;;;;;;;7332219;19;153652;-18
2021/10/13 15:28:11;;;;;;;0.65;0.65;;;;;;;;;;7332096;19;161837;-15
2021/10/13 15:30:39;;;;;;;0.60;0.60;;;;;;;;;;7333057;19;162534;-16
2021/10/13 15:33:09;;;;;;;0.70;0.70;;;;;;;;;;7333213;19;154104;-17
2021/10/13 15:35:41;;;;;;;0.60;0.60;;;;;;;;;;7331983;19;153748;-15
2021/10/13 15:38:09;;;;;;;0.60;0.60;;;;;;;;;;7329977;19;161889;-16
2021/10/13 15:40:37;;;;;;;0.50;0.50;;;;;;;;;;7332758;19;162510;-16
2021/10/13 15:43:06;;;;;;;0.55;0.55;;;;;;;;;;7332837;19;153992;-16
2021/10/13 15:45:36;;;;;;;0.85;0.60;;;;;;;;;;7331639;19;153634;-16
2021/10/13 15:48:04;;;;;;;0.63;0.63;;;;;;;;;;7332164;19;162111;-16
2021/10/13 15:50:33;;;;;;;0.60;0.60;;;;;;;;;;7332391;19;162492;-14
2021/10/13 15:53:01;;;;;;;0.73;0.60;;;;;;;;;;7332699;19;154011;-16
2021/10/13 15:55:29;;;;;;;0.50;0.50;;;;;;;;;;7332637;19;154079;-16
2021/10/13 15:57:58;;;;;;;0.60;0.60;;;;;;;;;;7332231;19;162066;-17
2021/10/13 16:00:26;;;;;;;0.50;0.50;;;;;;;;;;7332258;19;162365;-18
2021/10/13 16:02:53;;;;;;;0.52;0.50;;;;;;;;;;7331183;19;154633;-17
2021/10/13 16:05:21;;;;;;;0.50;0.50;;;;;;;;;;7332467;19;153552;-19
2021/10/13 16:07:50;;;;;;;0.52;0.52;;;;;;;;;;7332141;19;162118;-18
2021/10/13 16:10:18;;;;;;;0.50;0.50;;;;;;;;;;7329189;19;162680;-15
2021/10/13 16:12:46;;;;;;;0.52;0.52;;;;;;;;;;7332093;19;153968;-16
2021/10/13 16:15:14;;;;;;;0.47;0.47;;;;;;;;;;7331897;19;154394;-14
2021/10/13 16:17:42;;;;;;;0.63;0.63;;;;;;;;;;7330549;19;162013;-15
2021/10/13 16:20:11;;;;;;;0.47;0.47;;;;;;;;;;7331605;19;162381;-17
2021/10/13 16:22:42;;;;;;;0.70;0.55;;;;;;;;;;7331777;19;154041;-17
2021/10/13 16:25:11;;;;;;;0.50;0.50;;;;;;;;;;7331952;19;153530;-17
2021/10/13 16:27:39;;;;;;;0.43;0.43;;;;;;;;;;7331396;19;161716;-19
2021/10/13 16:30:08;;;;;;;0.50;0.50;;;;;;;;;;7327644;19;162431;-14
2021/10/13 16:32:36;;;;;;;0.63;0.50;;;;;;;;;;7331602;19;153992;-13
2021/10/13 16:35:05;;;;;;;1.08;0.60;;;;;;;;;;7330830;19;153540;-13
2021/10/13 16:37:33;;;;;;;0.30;0.30;;;;;;;;;;7329292;19;161811;-15
2021/10/13 16:40:03;;;;;;;0.40;0.40;;;;;;;;;;7330833;19;162363;-19
2021/10/13 16:42:33;;;;;;;0.50;0.50;;;;;;;;;;7330347;19;154138;-17
2021/10/13 16:45:03;;;;;;;0.52;0.52;;;;;;;;;;7330141;19;153547;-15
2021/10/13 16:47:31;;;;;;;0.50;0.50;;;;;;;;;;7329564;19;162151;-16
2021/10/13 16:50:00;;;;;;;0.40;0.40;;;;;;;;;;7328283;19;162705;-16
2021/10/13 16:52:29;;;;;;;0.50;0.50;;;;;;;;;;7330803;19;153953;-18
2021/10/13 16:54:57;;;;;;;0.40;0.40;;;;;;;;;;7331058;19;153543;-15
2021/10/13 16:57:26;;;;;;;0.40;0.40;;;;;;;;;;7330586;19;162145;-15
2021/10/13 16:59:54;;;;;;;0.50;0.50;;;;;;;;;;7330444;19;162514;-15
2021/10/13 17:02:22;;;;;;;0.50;0.50;;;;;;;;;;7329525;19;154012;-14
2021/10/13 17:04:49;;;;;;;0.50;0.50;;;;;;;;;;7330393;19;153340;-16
2021/10/13 17:07:17;;;;;;;0.43;0.43;;;;;;;;;;7330217;19;161851;-15
2021/10/13 17:09:46;;;;;;;0.73;0.50;;;;;;;;;;7328275;19;162513;-13
2021/10/13 17:12:13;;;;;;;0.52;0.50;;;;;;;;;;7329439;19;153999;-14
2021/10/13 17:14:42;;;;;;;0.40;0.40;;;;;;;;;;7330329;19;153805;-15
2021/10/13 17:17:10;;;;;;;0.52;0.52;;;;;;;;;;7329829;19;161828;-16
2021/10/13 17:19:38;;;;;;;0.45;0.45;;;;;;;;;;7329714;19;162486;-14
2021/10/13 17:22:06;;;;;;;0.50;0.50;;;;;;;;;;7330300;19;153972;-16
2021/10/13 17:24:34;;;;;;;0.40;0.40;;;;;;;;;;7329822;19;153549;-15
2021/10/13 17:27:02;;;;;;;0.40;0.40;;;;;;;;;;7329465;19;161882;-19
2021/10/13 17:29:34;;;;;;;0.47;0.47;;;;;;;;;;7327988;19;162338;-15
2021/10/13 17:32:02;;;;;;;0.47;0.47;;;;;;;;;;7329560;19;154231;-16
2021/10/13 17:34:30;;;;;;;0.50;0.50;;;;;;;;;;7329691;19;153496;-26
2021/10/13 17:36:58;;;;;;;1.00;0.40;;;;;;;;;;7329776;19;161834;-15
2021/10/13 17:39:27;;;;;;;0.45;0.45;;;;;;;;;;7326704;19;162687;-16
2021/10/13 17:41:55;;;;;;;0.40;0.40;;;;;;;;;;7329694;19;154084;-16
2021/10/13 17:44:24;;;;;;;0.47;0.47;;;;;;;;;;7329417;19;153413;-19
2021/10/13 17:46:52;;;;;;;0.40;0.40;;;;;;;;;;7329168;19;162031;-15
2021/10/13 17:49:20;;;;;;;0.32;0.32;;;;;;;;;;7333840;19;162422;-16
2021/10/13 17:51:48;;;;;;;0.50;0.50;;;;;;;;;;7336356;19;153996;-16
2021/10/13 17:54:17;;;;;;;0.50;0.50;;;;;;;;;;7336165;19;153788;-15
2021/10/13 17:56:45;;;;;;;0.50;0.43;;;;;;;;;;7334667;19;162164;-16
2021/10/13 17:59:13;;;;;;;0.73;0.73;;;;;;;;;;7335375;19;162375;-16
2021/10/13 18:01:41;;;;;;;0.40;0.40;;;;;;;;;;7335789;19;154285;-14
2021/10/13 18:04:09;;;;;;;0.45;0.45;;;;;;;;;;7336072;19;153570;-18
2021/10/13 18:06:37;;;;;;;0.32;0.32;;;;;;;;;;7335018;19;161916;-18
2021/10/13 18:09:06;;;;;;;0.45;0.45;;;;;;;;;;7334710;19;162799;-16
2021/10/13 18:11:34;;;;;;;0.40;0.40;;;;;;;;;;7335335;19;154198;-16
2021/10/13 18:14:02;;;;;;;0.40;0.40;;;;;;;;;;7335378;19;153577;-17
2021/10/13 18:16:30;;;;;;;0.30;0.30;;;;;;;;;;7335167;19;162007;-16
2021/10/13 18:18:58;;;;;;;0.52;0.52;;;;;;;;;;7334525;19;162442;-15
2021/10/13 18:21:26;;;;;;;0.30;0.30;;;;;;;;;;7335234;19;154111;-15
2021/10/13 18:23:54;;;;;;;0.90;0.60;;;;;;;;;;7335067;19;153575;-15
2021/10/13 18:26:22;;;;;;;0.50;0.50;;;;;;;;;;7334492;19;162006;-15
2021/10/13 18:28:50;;;;;;;0.40;0.40;;;;;;;;;;7334471;19;162628;-17
2021/10/13 18:31:17;;;;;;;0.40;0.40;;;;;;;;;;7335521;19;154021;-14
2021/10/13 18:33:48;;;;;;;0.30;0.30;;;;;;;;;;7338933;19;153501;-15
2021/10/13 18:36:16;;;;;;;0.30;0.30;;;;;;;;;;7334440;19;161796;-16
2021/10/13 18:38:44;;;;;;;0.40;0.40;;;;;;;;;;7332338;19;162704;-15
2021/10/13 18:41:12;;;;;;;0.40;0.40;;;;;;;;;;7334477;19;154002;-14
2021/10/13 18:43:40;;;;;;;0.30;0.30;;;;;;;;;;7334890;19;153971;-17
2021/10/13 18:46:08;;;;;;;0.43;0.43;;;;;;;;;;7335908;19;161931;-13
2021/10/13 18:48:37;;;;;;;0.40;0.40;;;;;;;;;;7334096;19;162542;-16
2021/10/13 18:51:06;;;;;;;0.35;0.35;;;;;;;;;;7331496;19;154202;-17
2021/10/13 18:53:34;;;;;;;0.35;0.32;;;;;;;;;;7336158;19;153620;-18
2021/10/13 18:56:03;;;;;;;0.40;0.40;;;;;;;;;;7335835;19;161793;-17
2021/10/13 18:58:32;;;;;;;0.35;0.35;;;;;;;;;;7329589;19;162663;-18
2021/10/13 19:01:00;;;;;;;0.43;0.40;;;;;;;;;;7330965;19;154127;-18
2021/10/13 19:03:28;;;;;;;0.38;0.38;;;;;;;;;;7331820;19;153546;-18
2021/10/13 19:05:56;;;;;;;0.40;0.40;;;;;;;;;;7331641;19;162014;-17
2021/10/13 19:08:24;;;;;;;0.30;0.30;;;;;;;;;;7333579;19;162320;-17
2021/10/13 19:10:53;;;;;;;0.40;0.40;;;;;;;;;;7332038;19;153976;-17
2021/10/13 19:13:21;;;;;;;0.40;0.40;;;;;;;;;;7332265;19;153674;-16
2021/10/13 19:15:51;;;;;;;0.50;0.50;;;;;;;;;;7333370;19;162115;-16
2021/10/13 19:18:19;;;;;;;0.40;0.40;;;;;;;;;;7333072;19;162304;-17
2021/10/13 19:20:48;;;;;;;0.35;0.35;;;;;;;;;;7332709;19;154329;-15
2021/10/13 19:23:17;;;;;;;0.30;0.30;;;;;;;;;;7332559;19;153600;-14
2021/10/13 19:25:45;;;;;;;0.28;0.28;;;;;;;;;;7332983;19;162051;-18
2021/10/13 19:28:13;;;;;;;0.32;0.32;;;;;;;;;;7332865;19;162332;-16
2021/10/13 19:30:41;;;;;;;0.30;0.30;;;;;;;;;;7331510;19;154133;-18
2021/10/13 19:33:09;;;;;;;0.30;0.30;;;;;;;;;;7332533;19;153614;-16
2021/10/13 19:35:37;;;;;;;0.30;0.30;;;;;;;;;;7332847;19;162045;-17
2021/10/13 19:38:05;;;;;;;0.40;0.40;;;;;;;;;;7331369;19;163198;-16
2021/10/13 19:40:35;;;;;;;0.30;0.30;;;;;;;;;;7333257;19;154011;-20
2021/10/13 19:43:03;;;;;;;0.22;0.22;;;;;;;;;;7333002;19;153534;-15
2021/10/13 19:45:31;;;;;;;0.30;0.30;;;;;;;;;;7332903;19;161792;-16
2021/10/13 19:47:59;;;;;;;0.30;0.30;;;;;;;;;;7333972;19;162616;-17
2021/10/13 19:50:27;;;;;;;0.30;0.30;;;;;;;;;;7333146;19;154209;-17
2021/10/13 19:52:55;;;;;;;0.30;0.30;;;;;;;;;;7334497;19;153590;-17
2021/10/13 19:55:23;;;;;;;0.30;0.30;;;;;;;;;;7335138;19;162442;-15
2021/10/13 19:57:51;;;;;;;0.30;0.30;;;;;;;;;;7334051;19;162535;-17
2021/10/13 20:00:19;;;;;;;0.40;0.40;;;;;;;;;;7321173;19;154025;-17
2021/10/13 20:02:47;;;;;;;0.60;0.60;;;;;;;;;;7334255;19;153201;-20
2021/10/13 20:05:16;;;;;;;0.75;0.75;;;;;;;;;;7334468;19;161813;-16
2021/10/13 20:07:44;;;;;;;0.60;0.60;;;;;;;;;;7334515;19;162411;-14
2021/10/13 20:10:12;;;;;;;1.30;0.90;;;;;;;;;;7332944;19;154017;-18
2021/10/13 20:12:40;;;;;;;0.70;0.70;;;;;;;;;;7335377;19;153490;-19
2021/10/13 20:15:09;;;;;;;0.90;0.90;;;;;;;;;;7334762;19;161716;-14
2021/10/13 20:17:38;;;;;;;0.80;0.80;;;;;;;;;;7334253;19;162522;-16
2021/10/13 20:20:07;;;;;;;1.83;1.60;;;;;;;;;;7333594;19;154148;-16
2021/10/13 20:22:35;;;;;;;5.13;4.20;;;;;;;;;;7334385;19;154195;-16
2021/10/13 20:25:04;;;;;;;6.18;5.40;;;;;;;;;;7333036;19;161819;-17
2021/10/13 20:27:32;;;;;;;5.13;4.53;;;;;;;;;;7334139;19;162722;-18
2021/10/13 20:30:00;;;;;;;8.27;6.00;;;;;;;;;;7333772;19;154108;-17
2021/10/13 20:32:28;;;;;;;6.45;5.78;;;;;;;;;;7334553;19;153520;-14
2021/10/13 20:34:56;;;;;;;6.68;5.70;;;;;;;;;;7334197;19;161949;-19
2021/10/13 20:37:24;;;;;;;7.40;6.32;;;;;;;;;;7332742;19;162621;-16
2021/10/13 20:39:53;;;;;;;7.15;6.13;;;;;;;;;;7333502;19;154270;-17
2021/10/13 20:42:21;;;;;;;7.32;5.95;;;;;;;;;;7333624;19;153934;-16
2021/10/13 20:44:49;;;;;;;7.20;6.40;;;;;;;;;;7333267;19;163489;-18
2021/10/13 20:47:17;;;;;;;9.00;6.40;;;;;;;;;;7332984;19;162383;-16
2021/10/13 20:49:45;;;;;;;6.65;5.70;;;;;;;;;;7332417;19;154152;-16
2021/10/13 20:52:13;;;;;;;7.25;6.03;;;;;;;;;;7332712;19;153617;-20
2021/10/13 20:54:41;;;;;;;6.85;6.15;;;;;;;;;;7332320;19;162160;-17
2021/10/13 20:57:09;;;;;;;6.55;5.85;;;;;;;;;;7332354;19;162589;-16
2021/10/13 20:59:38;;;;;;;7.40;6.32;;;;;;;;;;7333460;19;154131;-17
2021/10/13 21:02:07;;;;;;;7.65;5.80;;;;;;;;;;7333498;19;153577;-17
2021/10/13 21:04:44;;;;;;;7.80;6.40;;;;;;;;;;7332704;19;161927;-19
2021/10/13 21:07:12;;;;;;;6.30;5.70;;;;;;;;;;7332886;19;162354;-17
2021/10/13 21:09:41;;;;;;;7.10;5.78;;;;;;;;;;7333102;19;153977;-17
2021/10/13 21:12:09;;;;;;;7.72;5.97;;;;;;;;;;7329985;19;153504;-16
2021/10/13 21:14:37;;;;;;;7.03;6.32;;;;;;;;;;7333096;19;161809;-16
2021/10/13 21:17:05;;;;;;;6.57;5.88;;;;;;;;;;7332462;19;162630;-16
2021/10/13 21:19:33;;;;;;;6.85;6.15;;;;;;;;;;7331727;19;153960;-16
2021/10/13 21:22:01;;;;;;;7.63;5.90;;;;;;;;;;7332162;19;153619;-18
2021/10/13 21:24:29;;;;;;;6.72;5.70;;;;;;;;;;7332652;19;162219;-17
2021/10/13 21:26:59;;;;;;;6.70;6.00;;;;;;;;;;7332425;19;162536;-19
2021/10/13 21:29:27;;;;;;;6.30;5.70;;;;;;;;;;7332487;19;154113;-16
2021/10/13 21:31:55;;;;;;;6.28;5.68;;;;;;;;;;7329402;19;153550;-17
2021/10/13 21:34:23;;;;;;;5.78;5.28;;;;;;;;;;7332075;19;162280;-17
2021/10/13 21:36:51;;;;;;;6.25;5.13;;;;;;;;;;7332762;19;162560;-15
2021/10/13 21:39:19;;;;;;;5.85;5.35;;;;;;;;;;7330063;19;153995;-15
2021/10/13 21:41:52;;;;;;;5.70;5.10;;;;;;;;;;7332918;19;154069;-18
2021/10/13 21:44:21;;;;;;;5.53;5.03;;;;;;;;;;7331940;19;162020;-20
2021/10/13 21:46:49;;;;;;;5.80;5.20;;;;;;;;;;7331834;19;162584;-17
2021/10/13 21:49:18;;;;;;;5.95;5.35;;;;;;;;;;7330164;19;154387;-17
2021/10/13 21:51:46;;;;;;;5.35;4.85;;;;;;;;;;7329550;19;153582;-20
2021/10/13 21:54:14;;;;;;;5.60;5.10;;;;;;;;;;7331606;19;161960;-19
2021/10/13 21:56:41;;;;;;;5.80;5.20;;;;;;;;;;7330053;19;162818;-17
2021/10/13 21:59:09;;;;;;;6.45;5.18;;;;;;;;;;7331589;19;153991;-17
2021/10/13 22:01:37;;;;;;;5.60;5.00;;;;;;;;;;7330922;19;153539;-16
2021/10/13 22:04:06;;;;;;;5.75;4.90;;;;;;;;;;7330411;19;162185;-17
2021/10/13 22:06:34;;;;;;;5.85;5.03;;;;;;;;;;7331565;19;162636;-17
2021/10/13 22:09:02;;;;;;;5.20;4.70;;;;;;;;;;7330480;19;154077;-14
2021/10/13 22:11:30;;;;;;;5.32;4.82;;;;;;;;;;7329722;19;153677;-17
2021/10/13 22:13:58;;;;;;;5.07;4.57;;;;;;;;;;7330200;19;161788;-16
2021/10/13 22:16:27;;;;;;;5.65;4.95;;;;;;;;;;7331122;19;162385;-19
2021/10/13 22:18:57;;;;;;;5.82;4.82;;;;;;;;;;7330371;19;153873;-18
2021/10/13 22:21:26;;;;;;;5.32;4.82;;;;;;;;;;7330071;19;153780;-18
2021/10/13 22:23:55;;;;;;;5.20;4.70;;;;;;;;;;7329724;19;161953;-17
2021/10/13 22:26:23;;;;;;;5.45;4.95;;;;;;;;;;7330931;19;162133;-18
2021/10/13 22:28:51;;;;;;;5.70;5.03;;;;;;;;;;7330752;19;153966;-18
2021/10/13 22:31:19;;;;;;;5.38;4.88;;;;;;;;;;7330258;19;153656;-15
2021/10/13 22:33:48;;;;;;;4.85;4.40;;;;;;;;;;7331970;19;162074;-18
2021/10/13 22:36:17;;;;;;;5.38;4.63;;;;;;;;;;7337368;19;162509;-17
2021/10/13 22:38:45;;;;;;;4.90;4.50;;;;;;;;;;7336121;19;154254;-18
2021/10/13 22:41:13;;;;;;;4.97;4.50;;;;;;;;;;7337790;19;153655;-18
2021/10/13 22:43:41;;;;;;;5.10;4.43;;;;;;;;;;7337640;19;161934;-17
2021/10/13 22:46:09;;;;;;;5.28;4.57;;;;;;;;;;7337163;19;162636;-16
2021/10/13 22:48:37;;;;;;;5.57;4.78;;;;;;;;;;7336132;19;154050;-15
2021/10/13 22:51:06;;;;;;;5.22;4.65;;;;;;;;;;7337140;19;153242;-15
2021/10/13 22:53:36;;;;;;;4.78;4.35;;;;;;;;;;7335733;19;161855;-18
2021/10/13 22:56:04;;;;;;;4.93;4.45;;;;;;;;;;7337336;19;162305;-16
2021/10/13 22:58:32;;;;;;;4.88;4.43;;;;;;;;;;7336965;19;153809;-17
2021/10/13 23:01:00;;;;;;;5.60;4.55;;;;;;;;;;7338228;19;153736;-16
2021/10/13 23:03:30;;;;;;;4.63;4.22;;;;;;;;;;7332117;19;161839;-16
2021/10/13 23:05:59;;;;;;;4.68;4.28;;;;;;;;;;7333091;19;162412;-19
2021/10/13 23:08:27;;;;;;;4.50;4.10;;;;;;;;;;7333919;19;154002;-16
2021/10/13 23:10:55;;;;;;;4.65;4.05;;;;;;;;;;7327795;19;153576;-17
2021/10/13 23:13:23;;;;;;;4.93;4.43;;;;;;;;;;7332287;19;162412;-15
2021/10/13 23:15:51;;;;;;;4.88;4.20;;;;;;;;;;7332628;19;162566;-18
2021/10/13 23:18:21;;;;;;;4.72;4.32;;;;;;;;;;7333511;19;154146;-17
2021/10/13 23:20:49;;;;;;;4.13;3.72;;;;;;;;;;7333637;19;153546;-17
2021/10/13 23:23:19;;;;;;;4.10;3.70;;;;;;;;;;7331321;19;161972;-17
2021/10/13 23:25:50;;;;;;;4.53;4.13;;;;;;;;;;7331154;19;162510;-17
2021/10/13 23:28:18;;;;;;;4.50;4.10;;;;;;;;;;7333213;19;154049;-18
2021/10/13 23:30:45;;;;;;;4.15;3.75;;;;;;;;;;7333581;19;154313;-17
2021/10/13 23:33:13;;;;;;;4.30;3.90;;;;;;;;;;7330327;19;161841;-16
2021/10/13 23:35:41;;;;;;;4.43;4.03;;;;;;;;;;7332794;19;162588;-16
2021/10/13 23:38:09;;;;;;;4.15;3.75;;;;;;;;;;7332037;19;153963;-15
2021/10/13 23:40:37;;;;;;;3.92;3.60;;;;;;;;;;7332822;19;153561;-17
2021/10/13 23:43:07;;;;;;;3.90;3.60;;;;;;;;;;7332730;19;161912;-18
2021/10/13 23:45:35;;;;;;;3.80;3.50;;;;;;;;;;7332533;19;162386;-15
2021/10/13 23:48:03;;;;;;;3.80;3.50;;;;;;;;;;7332758;19;153964;-18
2021/10/13 23:50:32;;;;;;;4.07;3.78;;;;;;;;;;7332929;19;153660;-16
2021/10/13 23:53:00;;;;;;;4.35;3.85;;;;;;;;;;7329797;19;161968;-18
2021/10/13 23:55:29;;;;;;;3.80;3.50;;;;;;;;;;7330928;19;162374;-18
2021/10/13 23:57:56;;;;;;;3.50;3.20;;;;;;;;;;7332759;19;154148;-16
